Nagygyimót, Hungary

11:07 AM CEST on September 23, 2014 (GMT +0200)
Gyor | Change Station
CLOSE
Current Station
Personal Weather Station
Location: Gyor, GYOR-MOSON-SOPRON
Elevation: 377 ft
Nearby Weather Stations

Elev 377 ft 47.70 °N, 17.73 °E | Updated 2 minutes ago

Mostly Cloudy
Mostly Cloudy
56.8 °F
Feels Like 56.8 °F
N
15.9
Wind Variable Wind from NW
Gusts 28.4 mph

Today
High -- | Low -- °F
--% Chance of Precip.
Yesterday
High -- | Low -- °F
Precip. -- in
6:37 AM 6:46 PM
Waning Crescent, 1% visible
Pressure 30.01 in
Visibility 6.2 miles
Clouds Scattered Clouds 2800 ft
Mostly Cloudy 3600 ft
Dew Point 57 °F
Humidity 99%
Rainfall 0.00 in
Snow Depth Not available.
UV 2 out of 12
Pollen Not available.
Air Quality Not available.
Flu Activity Not available.
METAR LZIB 230900Z 32020KT 9999 SCT028 BKN036 14/06 Q1016 NOSIG

More Conditions Fewer Conditions

Pressure 30.01 in
Visibility 6.2 miles
Clouds Scattered Clouds 2800 ft
Mostly Cloudy 3600 ft
Dew Point 57 °F
Humidity 99%
Rainfall 0.00 in
Snow Depth Not available.
UV 2 out of 12
Pollen Not available.
Air Quality Not available.
Flu Activity Not available.
METAR LZIB 230900Z 32020KT 9999 SCT028 BKN036 14/06 Q1016 NOSIG

More Conditions Fewer Conditions

10-Day Weather Forecast

Almanac

Astronomy

Sep. 23, 2014 Rise Set
Actual Time 6:37 AM CEST 6:46 PM CEST
Civil Twilight 6:07 AM CEST 7:16 PM CEST
Nautical Twilight 5:31 AM CEST 7:52 PM CEST
Astronomical Twilight 4:53 AM CEST 8:29 PM CEST
Moon 5:43 AM CEST 6:15 PM CEST
Length of Visible Light 13h 09m
Length of Day
12h 08m
Tomorrow will be 3m 23s shorter.
Waning Crescent, 1% of the Moon is Illuminated
Today
Waning Crescent
Sep 24
New
Oct 1
First Quarter
Oct 8
Full
Oct 15
Last Quarter

Yesterday's Extremes

Country Highs Country Lows

Community

WunderPhotos

Upload Photos

1,755,643 photos uploaded!

Nearby

Snow Depth

Not available.

Earthquake Activity

City Distance Mag. Time & Date
No recent earthquake activity has been reported nearby.
Minimum magnitude displayed is 2.5.

Coastal Water Temperatures

Place Temperature
No Stations Reporting

Nearby Weather Stations